sensor_id;sensor_type;location;lat;lon;timestamp;P1;durP1;ratioP1;P2;durP2;ratioP2
13941;SDS011;7043;51.630;7.254;2022-12-07T00:01:43;26.10;;;23.20;;
13941;SDS011;7043;51.630;7.254;2022-12-07T00:04:11;28.50;;;24.37;;
13941;SDS011;7043;51.630;7.254;2022-12-07T00:06:38;27.87;;;22.43;;
13941;SDS011;7043;51.630;7.254;2022-12-07T00:09:05;25.33;;;20.07;;
13941;SDS011;7043;51.630;7.254;2022-12-07T00:11:31;26.37;;;22.63;;
13941;SDS011;7043;51.630;7.254;2022-12-07T00:13:58;27.70;;;23.37;;
13941;SDS011;7043;51.630;7.254;2022-12-07T00:16:26;28.37;;;23.60;;
13941;SDS011;7043;51.630;7.254;2022-12-07T00:18:52;28.70;;;23.60;;
13941;SDS011;7043;51.630;7.254;2022-12-07T00:21:20;28.60;;;24.40;;
13941;SDS011;7043;51.630;7.254;2022-12-07T00:23:47;28.17;;;23.17;;
13941;SDS011;7043;51.630;7.254;2022-12-07T00:26:17;29.70;;;23.40;;
13941;SDS011;7043;51.630;7.254;2022-12-07T00:28:47;30.57;;;24.87;;
13941;SDS011;7043;51.630;7.254;2022-12-07T00:31:13;30.50;;;24.40;;
13941;SDS011;7043;51.630;7.254;2022-12-07T00:33:40;31.50;;;25.47;;
13941;SDS011;7043;51.630;7.254;2022-12-07T00:36:08;32.57;;;26.97;;
13941;SDS011;7043;51.630;7.254;2022-12-07T00:38:35;32.20;;;27.23;;
13941;SDS011;7043;51.630;7.254;2022-12-07T00:41:03;34.37;;;27.43;;
13941;SDS011;7043;51.630;7.254;2022-12-07T00:43:29;30.80;;;26.57;;
13941;SDS011;7043;51.630;7.254;2022-12-07T00:45:55;33.40;;;28.83;;
13941;SDS011;7043;51.630;7.254;2022-12-07T00:48:21;35.27;;;27.83;;
13941;SDS011;7043;51.630;7.254;2022-12-07T00:50:48;32.07;;;26.07;;
13941;SDS011;7043;51.630;7.254;2022-12-07T00:53:14;34.90;;;27.60;;
13941;SDS011;7043;51.630;7.254;2022-12-07T00:55:41;33.10;;;28.10;;
13941;SDS011;7043;51.630;7.254;2022-12-07T00:58:07;34.77;;;28.00;;
13941;SDS011;7043;51.630;7.254;2022-12-07T01:00:34;35.67;;;26.80;;
13941;SDS011;7043;51.630;7.254;2022-12-07T01:03:00;35.17;;;29.47;;
13941;SDS011;7043;51.630;7.254;2022-12-07T01:05:26;35.87;;;27.40;;
13941;SDS011;7043;51.630;7.254;2022-12-07T01:07:52;34.43;;;28.90;;
13941;SDS011;7043;51.630;7.254;2022-12-07T01:10:18;36.00;;;28.60;;
13941;SDS011;7043;51.630;7.254;2022-12-07T01:12:44;38.10;;;29.90;;
13941;SDS011;7043;51.630;7.254;2022-12-07T01:15:10;32.37;;;22.73;;
13941;SDS011;7043;51.630;7.254;2022-12-07T01:17:36;34.93;;;29.10;;
13941;SDS011;7043;51.630;7.254;2022-12-07T01:20:02;32.60;;;27.73;;
13941;SDS011;7043;51.630;7.254;2022-12-07T01:22:28;37.30;;;28.97;;
13941;SDS011;7043;51.630;7.254;2022-12-07T01:24:54;35.97;;;27.47;;
13941;SDS011;7043;51.630;7.254;2022-12-07T01:27:20;37.17;;;28.53;;
13941;SDS011;7043;51.630;7.254;2022-12-07T01:29:46;34.80;;;28.70;;
13941;SDS011;7043;51.630;7.254;2022-12-07T01:32:12;36.30;;;29.63;;
13941;SDS011;7043;51.630;7.254;2022-12-07T01:34:38;38.47;;;29.17;;
13941;SDS011;7043;51.630;7.254;2022-12-07T01:37:04;33.70;;;29.27;;
13941;SDS011;7043;51.630;7.254;2022-12-07T01:39:30;35.53;;;29.37;;
13941;SDS011;7043;51.630;7.254;2022-12-07T01:41:56;35.13;;;28.23;;
13941;SDS011;7043;51.630;7.254;2022-12-07T01:44:26;31.93;;;24.37;;
13941;SDS011;7043;51.630;7.254;2022-12-07T01:51:47;32.43;;;24.97;;
13941;SDS011;7043;51.630;7.254;2022-12-07T01:54:14;33.43;;;27.47;;
13941;SDS011;7043;51.630;7.254;2022-12-07T01:56:42;37.33;;;27.83;;
13941;SDS011;7043;51.630;7.254;2022-12-07T01:59:11;36.63;;;29.20;;
13941;SDS011;7043;51.630;7.254;2022-12-07T02:01:37;37.47;;;29.87;;
13941;SDS011;7043;51.630;7.254;2022-12-07T02:04:03;37.50;;;30.83;;
13941;SDS011;7043;51.630;7.254;2022-12-07T02:06:30;36.17;;;28.30;;
13941;SDS011;7043;51.630;7.254;2022-12-07T02:08:56;35.43;;;27.33;;
13941;SDS011;7043;51.630;7.254;2022-12-07T02:11:22;30.63;;;24.67;;
13941;SDS011;7043;51.630;7.254;2022-12-07T02:13:48;36.47;;;28.20;;
13941;SDS011;7043;51.630;7.254;2022-12-07T02:24:14;33.40;;;25.53;;
13941;SDS011;7043;51.630;7.254;2022-12-07T02:26:42;35.20;;;28.00;;
13941;SDS011;7043;51.630;7.254;2022-12-07T02:31:37;34.57;;;28.83;;
13941;SDS011;7043;51.630;7.254;2022-12-07T02:34:08;39.20;;;29.10;;
13941;SDS011;7043;51.630;7.254;2022-12-07T02:36:55;37.77;;;28.97;;
13941;SDS011;7043;51.630;7.254;2022-12-07T02:39:30;37.43;;;30.83;;
13941;SDS011;7043;51.630;7.254;2022-12-07T02:41:59;35.13;;;29.23;;
13941;SDS011;7043;51.630;7.254;2022-12-07T02:44:27;37.93;;;30.37;;
13941;SDS011;7043;51.630;7.254;2022-12-07T02:46:55;37.87;;;30.03;;
13941;SDS011;7043;51.630;7.254;2022-12-07T02:49:22;38.87;;;29.73;;
13941;SDS011;7043;51.630;7.254;2022-12-07T02:51:49;35.90;;;29.53;;
13941;SDS011;7043;51.630;7.254;2022-12-07T02:54:17;36.93;;;29.50;;
13941;SDS011;7043;51.630;7.254;2022-12-07T03:06:46;39.83;;;29.57;;
13941;SDS011;7043;51.630;7.254;2022-12-07T03:09:19;34.23;;;28.50;;
13941;SDS011;7043;51.630;7.254;2022-12-07T03:11:47;37.17;;;27.70;;
13941;SDS011;7043;51.630;7.254;2022-12-07T03:14:18;37.10;;;28.33;;
13941;SDS011;7043;51.630;7.254;2022-12-07T03:19:24;36.23;;;27.87;;
13941;SDS011;7043;51.630;7.254;2022-12-07T03:21:56;34.43;;;28.23;;
13941;SDS011;7043;51.630;7.254;2022-12-07T03:24:31;36.63;;;28.83;;
13941;SDS011;7043;51.630;7.254;2022-12-07T03:27:01;35.77;;;28.40;;
13941;SDS011;7043;51.630;7.254;2022-12-07T03:29:29;37.30;;;27.80;;
13941;SDS011;7043;51.630;7.254;2022-12-07T03:32:02;39.57;;;29.40;;
13941;SDS011;7043;51.630;7.254;2022-12-07T03:34:32;37.73;;;28.70;;
13941;SDS011;7043;51.630;7.254;2022-12-07T03:37:01;35.73;;;28.60;;
13941;SDS011;7043;51.630;7.254;2022-12-07T03:39:30;34.90;;;26.80;;
13941;SDS011;7043;51.630;7.254;2022-12-07T03:41:57;37.43;;;29.70;;
13941;SDS011;7043;51.630;7.254;2022-12-07T03:44:25;38.80;;;30.03;;
13941;SDS011;7043;51.630;7.254;2022-12-07T03:46:56;36.10;;;28.40;;
13941;SDS011;7043;51.630;7.254;2022-12-07T03:49:35;37.37;;;28.20;;
13941;SDS011;7043;51.630;7.254;2022-12-07T03:52:24;41.30;;;28.50;;
13941;SDS011;7043;51.630;7.254;2022-12-07T03:57:14;41.10;;;29.17;;
13941;SDS011;7043;51.630;7.254;2022-12-07T03:59:41;38.13;;;26.67;;
13941;SDS011;7043;51.630;7.254;2022-12-07T04:02:08;39.73;;;30.33;;
13941;SDS011;7043;51.630;7.254;2022-12-07T04:04:36;40.13;;;29.70;;
13941;SDS011;7043;51.630;7.254;2022-12-07T04:07:02;39.57;;;31.00;;
13941;SDS011;7043;51.630;7.254;2022-12-07T04:09:28;39.90;;;30.03;;
13941;SDS011;7043;51.630;7.254;2022-12-07T04:11:54;39.93;;;29.80;;
13941;SDS011;7043;51.630;7.254;2022-12-07T04:14:20;42.83;;;30.67;;
13941;SDS011;7043;51.630;7.254;2022-12-07T04:16:52;43.00;;;29.80;;
13941;SDS011;7043;51.630;7.254;2022-12-07T04:19:19;41.10;;;28.77;;
13941;SDS011;7043;51.630;7.254;2022-12-07T04:21:46;37.83;;;29.60;;
13941;SDS011;7043;51.630;7.254;2022-12-07T04:24:13;37.90;;;28.00;;
13941;SDS011;7043;51.630;7.254;2022-12-07T04:26:40;38.63;;;28.77;;
13941;SDS011;7043;51.630;7.254;2022-12-07T04:29:06;38.97;;;29.00;;
13941;SDS011;7043;51.630;7.254;2022-12-07T04:31:32;38.00;;;27.80;;
13941;SDS011;7043;51.630;7.254;2022-12-07T04:33:58;36.67;;;27.80;;
13941;SDS011;7043;51.630;7.254;2022-12-07T04:36:24;35.20;;;24.23;;
13941;SDS011;7043;51.630;7.254;2022-12-07T04:38:52;34.47;;;26.13;;
13941;SDS011;7043;51.630;7.254;2022-12-07T04:41:18;38.37;;;29.80;;
13941;SDS011;7043;51.630;7.254;2022-12-07T04:43:44;37.67;;;27.87;;
13941;SDS011;7043;51.630;7.254;2022-12-07T04:46:11;37.33;;;26.37;;
13941;SDS011;7043;51.630;7.254;2022-12-07T04:48:37;40.53;;;29.50;;
13941;SDS011;7043;51.630;7.254;2022-12-07T04:51:03;39.50;;;28.73;;
13941;SDS011;7043;51.630;7.254;2022-12-07T04:53:29;37.20;;;29.10;;
13941;SDS011;7043;51.630;7.254;2022-12-07T04:55:55;38.80;;;27.60;;
13941;SDS011;7043;51.630;7.254;2022-12-07T04:58:21;34.03;;;26.50;;
13941;SDS011;7043;51.630;7.254;2022-12-07T05:00:47;37.40;;;28.13;;
13941;SDS011;7043;51.630;7.254;2022-12-07T05:03:13;36.63;;;28.70;;
13941;SDS011;7043;51.630;7.254;2022-12-07T05:05:40;37.60;;;27.83;;
13941;SDS011;7043;51.630;7.254;2022-12-07T05:08:06;37.03;;;27.87;;
13941;SDS011;7043;51.630;7.254;2022-12-07T05:10:32;39.00;;;27.97;;
13941;SDS011;7043;51.630;7.254;2022-12-07T05:12:58;37.07;;;27.83;;
13941;SDS011;7043;51.630;7.254;2022-12-07T05:15:24;36.20;;;26.03;;
13941;SDS011;7043;51.630;7.254;2022-12-07T05:17:50;34.10;;;25.60;;
13941;SDS011;7043;51.630;7.254;2022-12-07T05:20:17;32.20;;;26.53;;
13941;SDS011;7043;51.630;7.254;2022-12-07T05:22:43;32.90;;;24.47;;
13941;SDS011;7043;51.630;7.254;2022-12-07T05:25:09;32.87;;;24.83;;
13941;SDS011;7043;51.630;7.254;2022-12-07T05:27:35;33.00;;;25.50;;
13941;SDS011;7043;51.630;7.254;2022-12-07T05:30:01;33.50;;;24.90;;
13941;SDS011;7043;51.630;7.254;2022-12-07T05:32:27;34.37;;;25.33;;
13941;SDS011;7043;51.630;7.254;2022-12-07T05:34:53;33.83;;;24.37;;
13941;SDS011;7043;51.630;7.254;2022-12-07T05:37:19;34.23;;;25.77;;
13941;SDS011;7043;51.630;7.254;2022-12-07T05:39:45;45.38;;;32.05;;
13941;SDS011;7043;51.630;7.254;2022-12-07T05:42:11;44.53;;;32.37;;
13941;SDS011;7043;51.630;7.254;2022-12-07T05:44:38;36.50;;;28.13;;
13941;SDS011;7043;51.630;7.254;2022-12-07T05:47:04;33.13;;;26.47;;
13941;SDS011;7043;51.630;7.254;2022-12-07T05:49:30;31.07;;;24.77;;
13941;SDS011;7043;51.630;7.254;2022-12-07T05:51:56;28.67;;;22.97;;
13941;SDS011;7043;51.630;7.254;2022-12-07T05:54:22;28.33;;;21.40;;
13941;SDS011;7043;51.630;7.254;2022-12-07T05:56:48;31.33;;;22.77;;
13941;SDS011;7043;51.630;7.254;2022-12-07T05:59:14;26.47;;;20.73;;
13941;SDS011;7043;51.630;7.254;2022-12-07T06:02:02;26.53;;;21.30;;
13941;SDS011;7043;51.630;7.254;2022-12-07T06:04:29;27.03;;;20.63;;
13941;SDS011;7043;51.630;7.254;2022-12-07T06:06:56;27.27;;;22.27;;
13941;SDS011;7043;51.630;7.254;2022-12-07T06:09:22;28.20;;;22.27;;
13941;SDS011;7043;51.630;7.254;2022-12-07T06:11:49;34.27;;;24.37;;
13941;SDS011;7043;51.630;7.254;2022-12-07T06:14:34;31.60;;;23.33;;
13941;SDS011;7043;51.630;7.254;2022-12-07T06:17:00;26.67;;;22.43;;
13941;SDS011;7043;51.630;7.254;2022-12-07T06:19:27;27.93;;;22.50;;
13941;SDS011;7043;51.630;7.254;2022-12-07T06:21:53;27.50;;;21.17;;
13941;SDS011;7043;51.630;7.254;2022-12-07T06:24:19;25.07;;;21.03;;
13941;SDS011;7043;51.630;7.254;2022-12-07T06:26:46;26.50;;;20.67;;
13941;SDS011;7043;51.630;7.254;2022-12-07T06:29:12;24.97;;;20.53;;
13941;SDS011;7043;51.630;7.254;2022-12-07T06:31:38;25.67;;;20.77;;
13941;SDS011;7043;51.630;7.254;2022-12-07T06:34:05;24.80;;;19.70;;
13941;SDS011;7043;51.630;7.254;2022-12-07T06:36:32;27.53;;;20.20;;
13941;SDS011;7043;51.630;7.254;2022-12-07T06:38:58;27.43;;;20.07;;
13941;SDS011;7043;51.630;7.254;2022-12-07T06:41:24;24.83;;;19.93;;
13941;SDS011;7043;51.630;7.254;2022-12-07T06:43:50;25.67;;;19.80;;
13941;SDS011;7043;51.630;7.254;2022-12-07T06:46:16;27.53;;;21.27;;
13941;SDS011;7043;51.630;7.254;2022-12-07T06:48:42;24.40;;;20.10;;
13941;SDS011;7043;51.630;7.254;2022-12-07T06:51:09;25.03;;;19.43;;
13941;SDS011;7043;51.630;7.254;2022-12-07T06:53:35;26.70;;;19.43;;
13941;SDS011;7043;51.630;7.254;2022-12-07T06:56:01;29.57;;;20.73;;
13941;SDS011;7043;51.630;7.254;2022-12-07T06:58:27;26.47;;;20.33;;
13941;SDS011;7043;51.630;7.254;2022-12-07T07:00:53;24.80;;;20.00;;
13941;SDS011;7043;51.630;7.254;2022-12-07T07:03:19;27.50;;;19.07;;
13941;SDS011;7043;51.630;7.254;2022-12-07T07:05:45;23.00;;;17.57;;
13941;SDS011;7043;51.630;7.254;2022-12-07T07:08:11;23.30;;;18.30;;
13941;SDS011;7043;51.630;7.254;2022-12-07T07:10:38;24.87;;;18.60;;
13941;SDS011;7043;51.630;7.254;2022-12-07T07:13:04;21.60;;;17.90;;
13941;SDS011;7043;51.630;7.254;2022-12-07T07:15:30;24.50;;;18.37;;
13941;SDS011;7043;51.630;7.254;2022-12-07T07:17:57;23.20;;;17.40;;
13941;SDS011;7043;51.630;7.254;2022-12-07T07:20:23;25.63;;;18.53;;
13941;SDS011;7043;51.630;7.254;2022-12-07T07:22:49;24.53;;;18.43;;
13941;SDS011;7043;51.630;7.254;2022-12-07T07:25:15;24.83;;;18.13;;
13941;SDS011;7043;51.630;7.254;2022-12-07T07:27:41;22.30;;;17.30;;
13941;SDS011;7043;51.630;7.254;2022-12-07T07:30:07;22.97;;;18.20;;
13941;SDS011;7043;51.630;7.254;2022-12-07T07:32:33;23.70;;;17.17;;
13941;SDS011;7043;51.630;7.254;2022-12-07T07:34:59;24.23;;;18.40;;
13941;SDS011;7043;51.630;7.254;2022-12-07T07:37:26;21.83;;;17.63;;
13941;SDS011;7043;51.630;7.254;2022-12-07T07:39:52;23.17;;;18.13;;
13941;SDS011;7043;51.630;7.254;2022-12-07T07:42:18;22.43;;;17.77;;
13941;SDS011;7043;51.630;7.254;2022-12-07T07:44:44;21.87;;;14.70;;
13941;SDS011;7043;51.630;7.254;2022-12-07T07:47:10;24.13;;;19.47;;
13941;SDS011;7043;51.630;7.254;2022-12-07T07:49:36;26.90;;;21.43;;
13941;SDS011;7043;51.630;7.254;2022-12-07T07:52:02;24.77;;;18.53;;
13941;SDS011;7043;51.630;7.254;2022-12-07T07:54:28;23.90;;;19.67;;
13941;SDS011;7043;51.630;7.254;2022-12-07T07:56:54;17.33;;;15.07;;
13941;SDS011;7043;51.630;7.254;2022-12-07T07:59:20;16.63;;;13.10;;
13941;SDS011;7043;51.630;7.254;2022-12-07T08:01:46;14.47;;;12.03;;
13941;SDS011;7043;51.630;7.254;2022-12-07T08:04:12;15.90;;;11.87;;
13941;SDS011;7043;51.630;7.254;2022-12-07T08:06:38;14.70;;;12.00;;
13941;SDS011;7043;51.630;7.254;2022-12-07T08:09:04;13.77;;;12.13;;
13941;SDS011;7043;51.630;7.254;2022-12-07T08:11:31;15.07;;;12.37;;
13941;SDS011;7043;51.630;7.254;2022-12-07T08:13:57;17.03;;;12.67;;
13941;SDS011;7043;51.630;7.254;2022-12-07T08:16:23;17.30;;;13.37;;
13941;SDS011;7043;51.630;7.254;2022-12-07T08:18:49;16.83;;;12.97;;
13941;SDS011;7043;51.630;7.254;2022-12-07T08:21:15;17.13;;;14.27;;
13941;SDS011;7043;51.630;7.254;2022-12-07T08:23:41;19.70;;;14.63;;
13941;SDS011;7043;51.630;7.254;2022-12-07T08:26:08;19.40;;;14.80;;
13941;SDS011;7043;51.630;7.254;2022-12-07T08:28:35;17.27;;;13.93;;
13941;SDS011;7043;51.630;7.254;2022-12-07T08:31:11;19.40;;;15.03;;
13941;SDS011;7043;51.630;7.254;2022-12-07T08:33:38;17.03;;;14.67;;
13941;SDS011;7043;51.630;7.254;2022-12-07T08:36:05;17.30;;;14.40;;
13941;SDS011;7043;51.630;7.254;2022-12-07T08:38:34;20.90;;;15.27;;
13941;SDS011;7043;51.630;7.254;2022-12-07T08:41:00;17.80;;;14.33;;
13941;SDS011;7043;51.630;7.254;2022-12-07T08:43:26;19.60;;;14.57;;
13941;SDS011;7043;51.630;7.254;2022-12-07T08:48:34;18.60;;;13.27;;
13941;SDS011;7043;51.630;7.254;2022-12-07T08:51:01;20.27;;;14.73;;
13941;SDS011;7043;51.630;7.254;2022-12-07T08:53:28;21.07;;;14.87;;
13941;SDS011;7043;51.630;7.254;2022-12-07T08:55:55;19.57;;;14.10;;
13941;SDS011;7043;51.630;7.254;2022-12-07T08:58:22;20.30;;;13.67;;
13941;SDS011;7043;51.630;7.254;2022-12-07T09:00:48;21.33;;;15.00;;
13941;SDS011;7043;51.630;7.254;2022-12-07T09:03:14;19.37;;;14.20;;
13941;SDS011;7043;51.630;7.254;2022-12-07T09:05:40;21.10;;;14.17;;
13941;SDS011;7043;51.630;7.254;2022-12-07T09:08:06;23.27;;;14.50;;
13941;SDS011;7043;51.630;7.254;2022-12-07T09:10:32;18.80;;;14.27;;
13941;SDS011;7043;51.630;7.254;2022-12-07T09:12:58;19.53;;;13.90;;
13941;SDS011;7043;51.630;7.254;2022-12-07T09:15:28;19.90;;;13.60;;
13941;SDS011;7043;51.630;7.254;2022-12-07T09:17:54;16.00;;;12.73;;
13941;SDS011;7043;51.630;7.254;2022-12-07T09:20:20;21.47;;;14.07;;
13941;SDS011;7043;51.630;7.254;2022-12-07T09:22:46;16.40;;;12.47;;
13941;SDS011;7043;51.630;7.254;2022-12-07T09:25:13;18.23;;;11.70;;
13941;SDS011;7043;51.630;7.254;2022-12-07T09:27:38;15.20;;;10.83;;
13941;SDS011;7043;51.630;7.254;2022-12-07T09:30:05;15.00;;;9.97;;
13941;SDS011;7043;51.630;7.254;2022-12-07T09:32:31;16.50;;;10.73;;
13941;SDS011;7043;51.630;7.254;2022-12-07T09:34:57;15.90;;;10.27;;
13941;SDS011;7043;51.630;7.254;2022-12-07T09:37:23;15.50;;;10.80;;
13941;SDS011;7043;51.630;7.254;2022-12-07T09:39:49;14.07;;;9.97;;
13941;SDS011;7043;51.630;7.254;2022-12-07T09:42:24;12.97;;;10.67;;
13941;SDS011;7043;51.630;7.254;2022-12-07T09:44:51;14.97;;;9.53;;
13941;SDS011;7043;51.630;7.254;2022-12-07T09:47:17;17.73;;;9.97;;
13941;SDS011;7043;51.630;7.254;2022-12-07T09:49:43;12.87;;;9.33;;
13941;SDS011;7043;51.630;7.254;2022-12-07T09:52:17;12.43;;;10.03;;
13941;SDS011;7043;51.630;7.254;2022-12-07T09:54:46;16.47;;;9.47;;
13941;SDS011;7043;51.630;7.254;2022-12-07T09:57:12;16.50;;;9.07;;
13941;SDS011;7043;51.630;7.254;2022-12-07T09:59:39;13.17;;;9.40;;
13941;SDS011;7043;51.630;7.254;2022-12-07T10:05:12;12.13;;;7.00;;
13941;SDS011;7043;51.630;7.254;2022-12-07T10:07:39;11.17;;;7.87;;
13941;SDS011;7043;51.630;7.254;2022-12-07T10:10:15;11.50;;;6.17;;
13941;SDS011;7043;51.630;7.254;2022-12-07T10:12:52;10.13;;;7.20;;
13941;SDS011;7043;51.630;7.254;2022-12-07T10:15:19;12.67;;;7.20;;
13941;SDS011;7043;51.630;7.254;2022-12-07T10:17:51;11.30;;;6.73;;
13941;SDS011;7043;51.630;7.254;2022-12-07T10:20:26;10.50;;;6.83;;
13941;SDS011;7043;51.630;7.254;2022-12-07T10:22:56;9.50;;;6.40;;
13941;SDS011;7043;51.630;7.254;2022-12-07T10:25:24;10.63;;;6.57;;
13941;SDS011;7043;51.630;7.254;2022-12-07T10:27:57;7.77;;;5.67;;
13941;SDS011;7043;51.630;7.254;2022-12-07T10:30:24;11.00;;;5.53;;
13941;SDS011;7043;51.630;7.254;2022-12-07T10:32:49;11.63;;;5.53;;
13941;SDS011;7043;51.630;7.254;2022-12-07T10:35:20;9.67;;;5.33;;
13941;SDS011;7043;51.630;7.254;2022-12-07T10:37:47;9.20;;;5.27;;
13941;SDS011;7043;51.630;7.254;2022-12-07T10:40:30;12.70;;;5.73;;
13941;SDS011;7043;51.630;7.254;2022-12-07T10:45:27;11.67;;;5.10;;
13941;SDS011;7043;51.630;7.254;2022-12-07T10:48:05;7.50;;;5.40;;
13941;SDS011;7043;51.630;7.254;2022-12-07T11:00:58;10.13;;;4.67;;
13941;SDS011;7043;51.630;7.254;2022-12-07T11:16:40;10.13;;;5.60;;
13941;SDS011;7043;51.630;7.254;2022-12-07T11:19:13;7.90;;;4.73;;
13941;SDS011;7043;51.630;7.254;2022-12-07T11:21:56;9.73;;;4.67;;
13941;SDS011;7043;51.630;7.254;2022-12-07T11:30:08;8.23;;;4.87;;
13941;SDS011;7043;51.630;7.254;2022-12-07T11:37:42;7.43;;;4.80;;
13941;SDS011;7043;51.630;7.254;2022-12-07T11:43:13;9.53;;;4.50;;
13941;SDS011;7043;51.630;7.254;2022-12-07T11:45:41;7.40;;;4.10;;
13941;SDS011;7043;51.630;7.254;2022-12-07T11:48:15;9.13;;;4.63;;
13941;SDS011;7043;51.630;7.254;2022-12-07T11:50:50;9.97;;;5.07;;
13941;SDS011;7043;51.630;7.254;2022-12-07T11:53:23;8.90;;;4.30;;
13941;SDS011;7043;51.630;7.254;2022-12-07T12:03:47;8.37;;;3.87;;
13941;SDS011;7043;51.630;7.254;2022-12-07T12:06:15;7.60;;;3.97;;
13941;SDS011;7043;51.630;7.254;2022-12-07T12:08:53;6.53;;;3.97;;
13941;SDS011;7043;51.630;7.254;2022-12-07T12:16:48;9.27;;;3.70;;
13941;SDS011;7043;51.630;7.254;2022-12-07T12:21:46;7.33;;;3.90;;
13941;SDS011;7043;51.630;7.254;2022-12-07T12:24:18;6.13;;;3.83;;
13941;SDS011;7043;51.630;7.254;2022-12-07T12:26:51;6.37;;;3.87;;
13941;SDS011;7043;51.630;7.254;2022-12-07T12:29:23;7.67;;;3.33;;
13941;SDS011;7043;51.630;7.254;2022-12-07T12:36:59;7.80;;;4.33;;
13941;SDS011;7043;51.630;7.254;2022-12-07T12:39:25;6.40;;;3.23;;
13941;SDS011;7043;51.630;7.254;2022-12-07T12:41:52;5.73;;;2.83;;
13941;SDS011;7043;51.630;7.254;2022-12-07T12:46:55;7.40;;;3.70;;
13941;SDS011;7043;51.630;7.254;2022-12-07T12:54:15;8.37;;;3.43;;
13941;SDS011;7043;51.630;7.254;2022-12-07T13:01:43;5.60;;;3.43;;
13941;SDS011;7043;51.630;7.254;2022-12-07T13:06:54;5.00;;;2.57;;
13941;SDS011;7043;51.630;7.254;2022-12-07T13:09:27;6.70;;;2.77;;
13941;SDS011;7043;51.630;7.254;2022-12-07T13:12:04;9.77;;;3.03;;
13941;SDS011;7043;51.630;7.254;2022-12-07T13:17:07;5.43;;;2.60;;
13941;SDS011;7043;51.630;7.254;2022-12-07T13:27:40;9.30;;;5.67;;
13941;SDS011;7043;51.630;7.254;2022-12-07T13:30:13;9.03;;;4.60;;
13941;SDS011;7043;51.630;7.254;2022-12-07T13:32:39;10.57;;;4.40;;
13941;SDS011;7043;51.630;7.254;2022-12-07T13:37:50;7.83;;;3.03;;
13941;SDS011;7043;51.630;7.254;2022-12-07T13:40:17;5.90;;;2.83;;
13941;SDS011;7043;51.630;7.254;2022-12-07T13:42:44;5.57;;;2.93;;
13941;SDS011;7043;51.630;7.254;2022-12-07T13:45:20;5.73;;;3.30;;
13941;SDS011;7043;51.630;7.254;2022-12-07T13:47:52;11.90;;;4.40;;
13941;SDS011;7043;51.630;7.254;2022-12-07T13:50:26;9.13;;;3.67;;
13941;SDS011;7043;51.630;7.254;2022-12-07T13:52:59;9.33;;;3.70;;
13941;SDS011;7043;51.630;7.254;2022-12-07T13:55:25;6.40;;;2.17;;
13941;SDS011;7043;51.630;7.254;2022-12-07T13:57:52;6.87;;;2.30;;
13941;SDS011;7043;51.630;7.254;2022-12-07T14:00:23;13.00;;;5.93;;
13941;SDS011;7043;51.630;7.254;2022-12-07T14:02:57;4.87;;;2.10;;
13941;SDS011;7043;51.630;7.254;2022-12-07T14:05:27;9.93;;;6.03;;
13941;SDS011;7043;51.630;7.254;2022-12-07T14:10:24;5.83;;;2.77;;
13941;SDS011;7043;51.630;7.254;2022-12-07T14:12:50;7.23;;;3.23;;
13941;SDS011;7043;51.630;7.254;2022-12-07T14:15:20;7.77;;;3.40;;
13941;SDS011;7043;51.630;7.254;2022-12-07T14:17:51;6.03;;;3.13;;
13941;SDS011;7043;51.630;7.254;2022-12-07T14:20:31;7.13;;;3.53;;
13941;SDS011;7043;51.630;7.254;2022-12-07T14:22:57;6.67;;;3.80;;
13941;SDS011;7043;51.630;7.254;2022-12-07T14:25:24;9.10;;;4.20;;
13941;SDS011;7043;51.630;7.254;2022-12-07T14:27:56;8.43;;;4.17;;
13941;SDS011;7043;51.630;7.254;2022-12-07T14:30:24;9.50;;;5.60;;
13941;SDS011;7043;51.630;7.254;2022-12-07T14:32:52;8.40;;;4.03;;
13941;SDS011;7043;51.630;7.254;2022-12-07T14:35:19;11.70;;;4.80;;
13941;SDS011;7043;51.630;7.254;2022-12-07T14:37:47;8.60;;;5.30;;
13941;SDS011;7043;51.630;7.254;2022-12-07T14:40:23;6.97;;;5.27;;
13941;SDS011;7043;51.630;7.254;2022-12-07T14:42:50;9.80;;;5.43;;
13941;SDS011;7043;51.630;7.254;2022-12-07T14:45:18;11.07;;;5.43;;
13941;SDS011;7043;51.630;7.254;2022-12-07T14:47:45;11.87;;;7.53;;
13941;SDS011;7043;51.630;7.254;2022-12-07T14:50:13;13.90;;;8.27;;
13941;SDS011;7043;51.630;7.254;2022-12-07T14:52:39;11.63;;;6.03;;
13941;SDS011;7043;51.630;7.254;2022-12-07T14:55:13;7.77;;;4.10;;
13941;SDS011;7043;51.630;7.254;2022-12-07T14:57:39;8.60;;;4.40;;
13941;SDS011;7043;51.630;7.254;2022-12-07T15:00:05;8.27;;;5.27;;
13941;SDS011;7043;51.630;7.254;2022-12-07T15:02:32;11.13;;;7.00;;
13941;SDS011;7043;51.630;7.254;2022-12-07T15:04:58;11.90;;;7.40;;
13941;SDS011;7043;51.630;7.254;2022-12-07T15:07:24;10.90;;;6.90;;
13941;SDS011;7043;51.630;7.254;2022-12-07T15:09:51;15.80;;;9.77;;
13941;SDS011;7043;51.630;7.254;2022-12-07T15:12:17;19.03;;;10.70;;
13941;SDS011;7043;51.630;7.254;2022-12-07T15:14:43;15.73;;;10.37;;
13941;SDS011;7043;51.630;7.254;2022-12-07T15:17:10;13.70;;;7.23;;
13941;SDS011;7043;51.630;7.254;2022-12-07T15:19:39;10.40;;;4.70;;
13941;SDS011;7043;51.630;7.254;2022-12-07T15:22:06;9.50;;;5.20;;
13941;SDS011;7043;51.630;7.254;2022-12-07T15:24:32;10.23;;;6.17;;
13941;SDS011;7043;51.630;7.254;2022-12-07T15:26:59;10.37;;;6.67;;
13941;SDS011;7043;51.630;7.254;2022-12-07T15:29:25;13.73;;;6.60;;
13941;SDS011;7043;51.630;7.254;2022-12-07T15:31:51;20.57;;;9.53;;
13941;SDS011;7043;51.630;7.254;2022-12-07T15:34:18;21.43;;;9.20;;
13941;SDS011;7043;51.630;7.254;2022-12-07T15:36:44;14.50;;;7.93;;
13941;SDS011;7043;51.630;7.254;2022-12-07T15:39:10;13.30;;;7.10;;
13941;SDS011;7043;51.630;7.254;2022-12-07T15:41:37;14.30;;;6.90;;
13941;SDS011;7043;51.630;7.254;2022-12-07T15:44:03;11.60;;;8.47;;
13941;SDS011;7043;51.630;7.254;2022-12-07T15:46:48;8.97;;;4.67;;
13941;SDS011;7043;51.630;7.254;2022-12-07T15:49:16;8.53;;;4.73;;
13941;SDS011;7043;51.630;7.254;2022-12-07T15:51:42;6.60;;;4.70;;
13941;SDS011;7043;51.630;7.254;2022-12-07T15:54:19;8.83;;;5.07;;
13941;SDS011;7043;51.630;7.254;2022-12-07T15:56:45;8.00;;;5.20;;
13941;SDS011;7043;51.630;7.254;2022-12-07T15:59:12;9.97;;;5.07;;
13941;SDS011;7043;51.630;7.254;2022-12-07T16:01:38;9.13;;;5.13;;
13941;SDS011;7043;51.630;7.254;2022-12-07T16:04:04;10.63;;;5.33;;
13941;SDS011;7043;51.630;7.254;2022-12-07T16:06:30;13.97;;;5.30;;
13941;SDS011;7043;51.630;7.254;2022-12-07T16:08:56;10.67;;;6.27;;
13941;SDS011;7043;51.630;7.254;2022-12-07T16:11:22;9.57;;;5.60;;
13941;SDS011;7043;51.630;7.254;2022-12-07T16:13:48;9.07;;;5.50;;
13941;SDS011;7043;51.630;7.254;2022-12-07T16:16:15;9.07;;;5.70;;
13941;SDS011;7043;51.630;7.254;2022-12-07T16:18:41;10.20;;;6.00;;
13941;SDS011;7043;51.630;7.254;2022-12-07T16:21:08;9.67;;;4.97;;
13941;SDS011;7043;51.630;7.254;2022-12-07T16:23:34;9.20;;;6.43;;
13941;SDS011;7043;51.630;7.254;2022-12-07T16:26:04;12.93;;;6.17;;
13941;SDS011;7043;51.630;7.254;2022-12-07T16:28:30;12.07;;;6.53;;
13941;SDS011;7043;51.630;7.254;2022-12-07T16:31:00;9.90;;;6.83;;
13941;SDS011;7043;51.630;7.254;2022-12-07T16:33:26;11.40;;;7.30;;
13941;SDS011;7043;51.630;7.254;2022-12-07T16:35:52;12.20;;;8.00;;
13941;SDS011;7043;51.630;7.254;2022-12-07T16:38:18;11.00;;;9.07;;
13941;SDS011;7043;51.630;7.254;2022-12-07T16:40:44;11.13;;;7.03;;
13941;SDS011;7043;51.630;7.254;2022-12-07T16:43:13;8.93;;;6.77;;
13941;SDS011;7043;51.630;7.254;2022-12-07T16:45:39;12.73;;;6.80;;
13941;SDS011;7043;51.630;7.254;2022-12-07T16:48:05;9.37;;;6.43;;
13941;SDS011;7043;51.630;7.254;2022-12-07T16:50:31;7.47;;;5.93;;
13941;SDS011;7043;51.630;7.254;2022-12-07T16:52:57;9.50;;;4.87;;
13941;SDS011;7043;51.630;7.254;2022-12-07T16:55:23;10.93;;;6.07;;